Observations for BOSCOMBE DOWN, United Kingdom (EGDM)

EGDM 250250Z AUTO 32004KT 9999 FZUP BKN019/// SCT029/// 01/00 Q1013 
EGDM 250150Z AUTO 30006KT 9999 SCT060/// BKN130/// M00/M01 Q1013
EGDM 250050Z AUTO 31001G12KT 9999 FEW046/// SCT140/// M01/M02 Q1013 
EGDM 242350Z AUTO 17002KT 8000 BR FEW130/// M02/M03 Q1012   
EGDM 242250Z AUTO 32005KT 9999 BKN140/// M01/M01 Q1013  
EGDM 242150Z AUTO 13001KT 9999 BKN150/// 01/00 Q1013
EGDM 242050Z AUTO 29002KT 9999 OVC150/// 01/01 Q1012
EGDM 241950Z AUTO 27003KT 9999 BKN170/// 02/01 Q1012
EGDM 241850Z AUTO 29004KT 9999 BKN170/// 03/01 Q1012
EGDM 241750Z AUTO 34002KT 9999 BKN170/// 04/01 Q1012
EGDM 241650Z AUTO 35003KT 9999 FEW180/// 04/02 Q1012
EGDM 241550Z 01003KT 9999 FEW022 06/01 Q1012 BLU NOSIG  
EGDM 241450Z 36005KT 9999 FEW022 07/03 Q1011 BLU NOSIG  
EGDM 241350Z 35003KT 9999 FEW022 SCT140 08/02 Q1011 BLU NOSIG   
EGDM 241250Z 23001KT CAVOK 07/04 Q1011 BLU NOSIG
EGDM 241150Z 34004KT 9999 FEW012 BKN120 06/04 Q1011 BLU NOSIG   
EGDM 241050Z 36002KT CAVOK 05/04 Q1011 BLU NOSIG
EGDM 240950Z 33004KT CAVOK 04/04 Q1011 BLU NOSIG
EGDM 240850Z 32005KT CAVOK 04/04 Q1010 BLU NOSIG
EGDM 240750Z 29005KT CAVOK 04/03 Q1009 BLU NOSIG
EGDM 240650Z 32003KT 9999 SCT040 BKN060 04/04 Q1009 BLU 
EGDM 240550Z AUTO 27002KT 9999 BKN060/// BKN120/// 04/04 Q1008 RERA 
EGDM 240450Z AUTO 29004KT 9999 BKN090/// BKN140/// 04/04 Q1007  
EGDM 240350Z AUTO 32003KT 9999 FEW110/// BKN140/// 04/04 Q1007  
EGDM 240250Z AUTO 26003KT 9999 BKN060/// BKN150/// 05/04 Q1006